Time;durP1;ratioP1;P1;durP2;ratioP2;P2;SDS_P1;SDS_P2;PMS_P1;PMS_P2;Temp;Humidity;BMP_temperature;BMP_pressure;BME280_temperature;BME280_humidity;BME280_pressure;Samples;Min_cycle;Max_cycle;Signal;HPM_P1;HPM_P2
2023/07/20 00:02:10;;;;;;;3.40;1.15;;;;;;;;;;5108789;27;44001;-71
2023/07/20 00:04:38;;;;;;;3.47;1.00;;;;;;;;;;5108328;27;40389;-74
2023/07/20 00:07:06;;;;;;;4.47;1.08;;;;;;;;;;5107011;27;42254;-72
2023/07/20 00:09:34;;;;;;;4.63;1.40;;;;;;;;;;5108411;27;40399;-75
2023/07/20 00:12:02;;;;;;;3.75;1.25;;;;;;;;;;5108224;27;41135;-73
2023/07/20 00:14:31;;;;;;;2.85;1.20;;;;;;;;;;5097979;27;41974;-70
2023/07/20 00:16:59;;;;;;;2.20;1.10;;;;;;;;;;5107049;28;42671;-72
2023/07/20 00:19:29;;;;;;;2.28;1.00;;;;;;;;;;5107668;28;42900;-69
2023/07/20 00:21:57;;;;;;;4.25;1.25;;;;;;;;;;5108602;27;42272;-69
2023/07/20 00:24:25;;;;;;;2.67;1.17;;;;;;;;;;5106366;27;39964;-69
2023/07/20 00:26:53;;;;;;;2.88;1.10;;;;;;;;;;5089009;28;41703;-69
2023/07/20 00:29:21;;;;;;;4.53;1.05;;;;;;;;;;5096580;27;40562;-69
2023/07/20 00:31:49;;;;;;;2.70;1.25;;;;;;;;;;5104902;28;40957;-70
2023/07/20 00:34:19;;;;;;;2.42;1.10;;;;;;;;;;5106857;27;43663;-69
2023/07/20 00:36:49;;;;;;;1.25;0.93;;;;;;;;;;5124157;27;39928;-69
2023/07/20 00:39:17;;;;;;;1.27;0.98;;;;;;;;;;5108397;28;42445;-69
2023/07/20 00:41:45;;;;;;;5.78;1.42;;;;;;;;;;5099187;28;41674;-69
2023/07/20 00:44:13;;;;;;;3.08;1.10;;;;;;;;;;5108879;28;40491;-70
2023/07/20 00:46:43;;;;;;;2.45;1.00;;;;;;;;;;5108758;28;42285;-69
2023/07/20 00:49:12;;;;;;;2.05;0.82;;;;;;;;;;5108543;27;42386;-69
2023/07/20 00:51:40;;;;;;;1.90;1.00;;;;;;;;;;5123815;27;41512;-70
2023/07/20 00:54:10;;;;;;;2.28;1.17;;;;;;;;;;5108806;27;41740;-69
2023/07/20 00:56:38;;;;;;;2.17;1.20;;;;;;;;;;5107445;28;41451;-69
2023/07/20 00:59:06;;;;;;;1.90;0.93;;;;;;;;;;5108810;27;41680;-69
2023/07/20 01:01:35;;;;;;;3.28;0.90;;;;;;;;;;5108468;28;42068;-69
2023/07/20 01:04:04;;;;;;;3.35;1.15;;;;;;;;;;5107163;28;40880;-69
2023/07/20 01:06:34;;;;;;;2.85;1.20;;;;;;;;;;5122905;27;40589;-69
2023/07/20 01:09:03;;;;;;;1.73;1.00;;;;;;;;;;5107608;28;42245;-69
2023/07/20 01:11:35;;;;;;;3.13;0.98;;;;;;;;;;5107164;27;41418;-69
2023/07/20 01:14:04;;;;;;;2.33;1.20;;;;;;;;;;5107192;28;41253;-69
2023/07/20 01:16:33;;;;;;;1.83;0.90;;;;;;;;;;5107299;28;41064;-69
2023/07/20 01:19:01;;;;;;;1.17;1.00;;;;;;;;;;5108615;28;41735;-69
2023/07/20 01:21:32;;;;;;;1.05;0.65;;;;;;;;;;5107706;28;42105;-69
2023/07/20 01:24:06;;;;;;;3.47;0.90;;;;;;;;;;5107934;28;39886;-69
2023/07/20 01:26:42;;;;;;;2.15;1.10;;;;;;;;;;5105646;28;41682;-69
2023/07/20 01:29:17;;;;;;;2.45;1.00;;;;;;;;;;5108281;27;42782;-69
2023/07/20 01:31:46;;;;;;;1.17;0.70;;;;;;;;;;5106852;28;42220;-70
2023/07/20 01:34:15;;;;;;;2.17;0.82;;;;;;;;;;5108265;27;41776;-69
2023/07/20 01:36:44;;;;;;;1.98;0.60;;;;;;;;;;5106874;28;38865;-69
2023/07/20 01:39:12;;;;;;;1.13;0.90;;;;;;;;;;5106012;28;40114;-69
2023/07/20 01:41:40;;;;;;;2.05;0.68;;;;;;;;;;5104257;28;41326;-69
2023/07/20 01:44:09;;;;;;;1.23;0.73;;;;;;;;;;5106457;28;38971;-70
2023/07/20 01:46:38;;;;;;;1.15;0.80;;;;;;;;;;5105431;27;41773;-69
2023/07/20 01:49:07;;;;;;;1.27;0.77;;;;;;;;;;5107081;28;42223;-69
2023/07/20 01:51:35;;;;;;;2.65;1.00;;;;;;;;;;5105663;28;40163;-69
2023/07/20 01:54:03;;;;;;;1.00;0.90;;;;;;;;;;5092938;28;40376;-68
2023/07/20 01:56:31;;;;;;;2.58;0.85;;;;;;;;;;5093226;28;32426;-69
2023/07/20 01:58:59;;;;;;;0.63;0.60;;;;;;;;;;5120410;27;40138;-68
2023/07/20 02:01:28;;;;;;;1.10;0.60;;;;;;;;;;5122674;27;41321;-68
2023/07/20 02:03:56;;;;;;;1.00;0.63;;;;;;;;;;5107981;28;40252;-69
2023/07/20 02:06:26;;;;;;;1.35;0.70;;;;;;;;;;5104847;28;42111;-69
2023/07/20 02:08:54;;;;;;;1.00;0.77;;;;;;;;;;5107195;27;42636;-69
2023/07/20 02:11:22;;;;;;;2.45;0.68;;;;;;;;;;5105465;28;40767;-69
2023/07/20 02:13:50;;;;;;;0.68;0.63;;;;;;;;;;5105808;28;41307;-69
2023/07/20 02:16:17;;;;;;;0.80;0.60;;;;;;;;;;5106319;27;40890;-69
2023/07/20 02:18:46;;;;;;;1.00;0.70;;;;;;;;;;5104125;28;40420;-69
2023/07/20 02:21:14;;;;;;;1.00;0.77;;;;;;;;;;5096191;27;42726;-69
2023/07/20 02:23:43;;;;;;;1.05;0.55;;;;;;;;;;5105500;27;40631;-70
2023/07/20 02:26:11;;;;;;;1.08;0.70;;;;;;;;;;5105302;28;41228;-69
2023/07/20 02:28:39;;;;;;;1.15;0.80;;;;;;;;;;5103962;28;41281;-69
2023/07/20 02:31:07;;;;;;;0.50;0.50;;;;;;;;;;5106227;28;40499;-70
2023/07/20 02:33:35;;;;;;;0.57;0.57;;;;;;;;;;5106263;28;41688;-69
2023/07/20 02:36:03;;;;;;;0.60;0.60;;;;;;;;;;5105914;28;42802;-70
2023/07/20 02:38:31;;;;;;;0.75;0.50;;;;;;;;;;5122158;27;40325;-69
2023/07/20 02:41:01;;;;;;;2.15;0.75;;;;;;;;;;5104955;28;42133;-69
2023/07/20 02:43:29;;;;;;;0.63;0.50;;;;;;;;;;5102784;28;40430;-69
2023/07/20 02:46:00;;;;;;;0.93;0.50;;;;;;;;;;5107140;28;42187;-69
2023/07/20 02:48:28;;;;;;;0.88;0.52;;;;;;;;;;5103721;28;42945;-69
2023/07/20 02:50:56;;;;;;;0.70;0.60;;;;;;;;;;5105059;28;38925;-70
2023/07/20 02:53:24;;;;;;;1.00;0.52;;;;;;;;;;5105908;28;42803;-69
2023/07/20 02:55:52;;;;;;;0.73;0.52;;;;;;;;;;5113789;27;42132;-69
2023/07/20 02:58:21;;;;;;;0.63;0.40;;;;;;;;;;5104625;27;42244;-69
2023/07/20 03:00:49;;;;;;;0.88;0.50;;;;;;;;;;5122564;27;40068;-69
2023/07/20 03:03:17;;;;;;;0.60;0.52;;;;;;;;;;5104500;27;40936;-69
2023/07/20 03:05:45;;;;;;;1.65;0.65;;;;;;;;;;5106299;28;41739;-69
2023/07/20 03:08:13;;;;;;;0.68;0.57;;;;;;;;;;5105848;28;42444;-70
2023/07/20 03:10:42;;;;;;;0.73;0.55;;;;;;;;;;5106627;28;41829;-69
2023/07/20 03:13:10;;;;;;;2.75;0.47;;;;;;;;;;5105589;28;41335;-70
2023/07/20 03:15:40;;;;;;;0.85;0.55;;;;;;;;;;5103518;28;41242;-70
2023/07/20 03:18:08;;;;;;;0.65;0.50;;;;;;;;;;5088774;28;39668;-69
2023/07/20 03:20:37;;;;;;;0.60;0.40;;;;;;;;;;5106043;27;42179;-69
2023/07/20 03:23:05;;;;;;;0.40;0.40;;;;;;;;;;5103992;28;41779;-69
2023/07/20 03:25:37;;;;;;;0.80;0.50;;;;;;;;;;5105404;28;41628;-69
2023/07/20 03:28:05;;;;;;;0.85;0.60;;;;;;;;;;5088810;28;41364;-70
2023/07/20 03:30:33;;;;;;;0.88;0.57;;;;;;;;;;5102786;27;40645;-70
2023/07/20 03:33:04;;;;;;;0.60;0.47;;;;;;;;;;5103513;28;41288;-70
2023/07/20 03:35:32;;;;;;;2.13;0.38;;;;;;;;;;5103682;28;40779;-70
2023/07/20 03:38:00;;;;;;;0.47;0.47;;;;;;;;;;5106773;28;39625;-71
2023/07/20 03:40:28;;;;;;;0.32;0.32;;;;;;;;;;5108925;27;42681;-69
2023/07/20 03:42:56;;;;;;;0.65;0.43;;;;;;;;;;5108604;28;42043;-70
2023/07/20 03:45:24;;;;;;;0.60;0.50;;;;;;;;;;5108153;28;41233;-70
2023/07/20 03:47:52;;;;;;;0.73;0.50;;;;;;;;;;5123956;27;40595;-70
2023/07/20 03:50:22;;;;;;;0.68;0.47;;;;;;;;;;5123993;27;40546;-70
2023/07/20 03:52:50;;;;;;;1.30;0.70;;;;;;;;;;5107610;28;42804;-70
2023/07/20 03:55:18;;;;;;;0.30;0.30;;;;;;;;;;5123901;27;40848;-70
2023/07/20 03:57:46;;;;;;;1.52;0.68;;;;;;;;;;5123926;27;39202;-70
2023/07/20 04:00:16;;;;;;;1.65;0.43;;;;;;;;;;5108441;28;41779;-70
2023/07/20 04:02:44;;;;;;;0.90;0.60;;;;;;;;;;5107843;28;42115;-70
2023/07/20 04:05:12;;;;;;;0.52;0.50;;;;;;;;;;5108524;28;40056;-70
2023/07/20 04:07:41;;;;;;;0.80;0.60;;;;;;;;;;5106489;28;43361;-70
2023/07/20 04:10:10;;;;;;;0.50;0.50;;;;;;;;;;5100924;28;40112;-70
2023/07/20 04:12:38;;;;;;;0.60;0.50;;;;;;;;;;5107057;28;42120;-70
2023/07/20 04:15:06;;;;;;;0.50;0.30;;;;;;;;;;5107341;28;41977;-70
2023/07/20 04:17:34;;;;;;;0.70;0.47;;;;;;;;;;5107279;28;41368;-70
2023/07/20 04:20:04;;;;;;;1.27;0.50;;;;;;;;;;5092496;28;41237;-70
2023/07/20 04:22:32;;;;;;;0.85;0.50;;;;;;;;;;5107284;27;42676;-70
2023/07/20 04:25:01;;;;;;;0.90;0.52;;;;;;;;;;5108600;28;41484;-70
2023/07/20 04:27:29;;;;;;;0.82;0.50;;;;;;;;;;5104521;28;40876;-70
2023/07/20 04:29:58;;;;;;;1.05;0.60;;;;;;;;;;5106838;28;39129;-71
2023/07/20 04:32:26;;;;;;;1.40;0.70;;;;;;;;;;5123667;27;41665;-70
2023/07/20 04:34:55;;;;;;;0.73;0.50;;;;;;;;;;5104948;28;40849;-70
2023/07/20 04:37:23;;;;;;;0.45;0.40;;;;;;;;;;5090214;28;40156;-70
2023/07/20 04:39:54;;;;;;;0.57;0.50;;;;;;;;;;5106185;28;42442;-70
2023/07/20 04:42:24;;;;;;;1.98;0.50;;;;;;;;;;5122309;27;41499;-70
2023/07/20 04:44:52;;;;;;;0.82;0.40;;;;;;;;;;5107684;28;41133;-70
2023/07/20 04:47:20;;;;;;;1.20;0.52;;;;;;;;;;5122328;27;41108;-69
2023/07/20 04:49:50;;;;;;;1.05;0.40;;;;;;;;;;5106211;28;41126;-70
2023/07/20 04:52:18;;;;;;;1.05;0.40;;;;;;;;;;5107199;27;39961;-70
2023/07/20 04:54:47;;;;;;;0.60;0.43;;;;;;;;;;5102348;28;40806;-70
2023/07/20 04:57:15;;;;;;;0.30;0.30;;;;;;;;;;5106488;28;39651;-69
2023/07/20 04:59:48;;;;;;;2.72;0.68;;;;;;;;;;5123251;27;40231;-68
2023/07/20 05:02:16;;;;;;;1.50;0.45;;;;;;;;;;5091777;28;40294;-71
2023/07/20 05:04:44;;;;;;;0.40;0.30;;;;;;;;;;5107412;28;41347;-69
2023/07/20 05:07:12;;;;;;;1.95;0.40;;;;;;;;;;5104838;28;39088;-69
2023/07/20 05:09:41;;;;;;;0.55;0.50;;;;;;;;;;5121023;27;42929;-69
2023/07/20 05:12:09;;;;;;;0.57;0.40;;;;;;;;;;5108574;28;40523;-69
2023/07/20 05:14:37;;;;;;;0.40;0.40;;;;;;;;;;5116407;27;42498;-69
2023/07/20 05:17:07;;;;;;;0.82;0.52;;;;;;;;;;5104214;28;39069;-69
2023/07/20 05:19:35;;;;;;;0.85;0.50;;;;;;;;;;5104634;28;40123;-69
2023/07/20 05:22:04;;;;;;;0.75;0.45;;;;;;;;;;5106197;28;41583;-69
2023/07/20 05:24:33;;;;;;;0.70;0.50;;;;;;;;;;5103156;28;39945;-69
2023/07/20 05:27:01;;;;;;;0.52;0.30;;;;;;;;;;5106789;28;41530;-69
2023/07/20 05:29:29;;;;;;;0.85;0.60;;;;;;;;;;5107241;27;41847;-69
2023/07/20 05:31:57;;;;;;;0.60;0.50;;;;;;;;;;5105324;27;40760;-71
2023/07/20 05:34:26;;;;;;;2.30;0.63;;;;;;;;;;5107095;27;41833;-69
2023/07/20 05:36:54;;;;;;;1.20;0.40;;;;;;;;;;5098711;27;40883;-70
2023/07/20 05:39:22;;;;;;;0.50;0.40;;;;;;;;;;5099218;28;41273;-71
2023/07/20 05:41:50;;;;;;;0.32;0.30;;;;;;;;;;5106321;28;41802;-71
2023/07/20 05:44:18;;;;;;;1.98;0.40;;;;;;;;;;5100863;27;41288;-69
2023/07/20 05:46:47;;;;;;;0.70;0.40;;;;;;;;;;5100551;27;41643;-69
2023/07/20 05:49:24;;;;;;;0.70;0.50;;;;;;;;;;5101142;27;42922;-69
2023/07/20 05:51:55;;;;;;;0.50;0.40;;;;;;;;;;5104046;27;40384;-69
2023/07/20 05:54:22;;;;;;;0.52;0.40;;;;;;;;;;5103280;27;41684;-70
2023/07/20 05:56:51;;;;;;;0.50;0.40;;;;;;;;;;5105736;27;42070;-69
2023/07/20 05:59:19;;;;;;;0.40;0.38;;;;;;;;;;5100721;27;42579;-69
2023/07/20 06:01:48;;;;;;;0.70;0.40;;;;;;;;;;5105087;27;41900;-70
2023/07/20 06:04:16;;;;;;;0.60;0.40;;;;;;;;;;5107563;27;40877;-69
2023/07/20 06:06:44;;;;;;;0.50;0.30;;;;;;;;;;5107776;27;42436;-70
2023/07/20 06:09:14;;;;;;;0.73;0.60;;;;;;;;;;5107567;27;42801;-70
2023/07/20 06:11:42;;;;;;;0.50;0.50;;;;;;;;;;5106742;27;40244;-69
2023/07/20 06:14:10;;;;;;;0.98;0.60;;;;;;;;;;5107440;27;42046;-70
2023/07/20 06:16:38;;;;;;;1.38;0.50;;;;;;;;;;5107743;27;42787;-69
2023/07/20 06:19:06;;;;;;;1.92;0.40;;;;;;;;;;5106748;27;41727;-70
2023/07/20 06:21:34;;;;;;;0.70;0.30;;;;;;;;;;5106860;27;41796;-69
2023/07/20 06:24:02;;;;;;;0.30;0.30;;;;;;;;;;5107764;27;41212;-69
2023/07/20 06:26:37;;;;;;;0.77;0.50;;;;;;;;;;5106291;27;41434;-71
2023/07/20 06:29:06;;;;;;;0.73;0.25;;;;;;;;;;5107371;27;41889;-70
2023/07/20 06:31:34;;;;;;;0.70;0.40;;;;;;;;;;5106767;27;40907;-70
2023/07/20 06:34:02;;;;;;;1.10;0.50;;;;;;;;;;5107131;27;42153;-69
2023/07/20 06:36:30;;;;;;;3.50;0.60;;;;;;;;;;5107498;27;42164;-69
2023/07/20 06:38:58;;;;;;;3.30;0.40;;;;;;;;;;5109084;27;40205;-70
2023/07/20 06:41:31;;;;;;;6.00;0.85;;;;;;;;;;5104590;27;41850;-69
2023/07/20 06:44:03;;;;;;;2.40;1.08;;;;;;;;;;5099814;27;40356;-68
2023/07/20 06:46:31;;;;;;;5.95;1.00;;;;;;;;;;5105266;27;42247;-68
2023/07/20 06:48:59;;;;;;;3.72;1.10;;;;;;;;;;5103176;28;42783;-68
2023/07/20 06:51:30;;;;;;;3.22;0.95;;;;;;;;;;5105715;27;41237;-68
2023/07/20 06:53:58;;;;;;;2.88;0.82;;;;;;;;;;5105757;27;41960;-68
2023/07/20 06:56:26;;;;;;;2.13;0.90;;;;;;;;;;5105475;27;42143;-68
2023/07/20 06:58:56;;;;;;;2.22;0.93;;;;;;;;;;5105983;27;39920;-69
2023/07/20 07:01:25;;;;;;;3.08;0.88;;;;;;;;;;5105261;27;42666;-69
2023/07/20 07:03:54;;;;;;;2.63;0.80;;;;;;;;;;5104069;27;39811;-68
2023/07/20 07:06:23;;;;;;;1.63;0.80;;;;;;;;;;5104392;27;43181;-68
2023/07/20 07:08:53;;;;;;;2.80;1.05;;;;;;;;;;5104700;27;42624;-72
2023/07/20 07:11:21;;;;;;;6.70;1.02;;;;;;;;;;5107632;27;41367;-69
2023/07/20 07:13:51;;;;;;;4.55;1.17;;;;;;;;;;5109501;28;41871;-75
2023/07/20 07:16:21;;;;;;;1.80;0.85;;;;;;;;;;5108792;27;42481;-72
2023/07/20 07:18:51;;;;;;;7.90;1.08;;;;;;;;;;5110011;27;41390;-70
2023/07/20 07:21:19;;;;;;;3.67;0.70;;;;;;;;;;5109912;27;41555;-68
2023/07/20 07:23:47;;;;;;;4.28;0.93;;;;;;;;;;5110686;27;43035;-68
2023/07/20 07:26:16;;;;;;;2.50;0.80;;;;;;;;;;5109489;27;41535;-68
2023/07/20 07:28:44;;;;;;;14.02;1.25;;;;;;;;;;5110337;27;42900;-69
2023/07/20 07:31:12;;;;;;;1.73;0.80;;;;;;;;;;5107816;27;41118;-68
2023/07/20 07:33:40;;;;;;;1.65;0.60;;;;;;;;;;5108771;27;41787;-70
2023/07/20 07:36:09;;;;;;;4.68;0.60;;;;;;;;;;5110008;27;41477;-78
2023/07/20 07:38:38;;;;;;;1.83;0.80;;;;;;;;;;5110170;27;41338;-78
2023/07/20 07:41:26;;;;;;;1.77;0.63;;;;;;;;;;5109189;27;40027;-76
2023/07/20 07:43:54;;;;;;;4.43;0.80;;;;;;;;;;5109873;27;42127;-73
2023/07/20 07:46:22;;;;;;;3.90;0.70;;;;;;;;;;5107298;27;41041;-70
2023/07/20 07:48:50;;;;;;;1.08;0.60;;;;;;;;;;5110206;27;42317;-71
2023/07/20 07:51:20;;;;;;;7.35;4.10;;;;;;;;;;5108510;27;40806;-72
2023/07/20 07:53:49;;;;;;;4.57;2.28;;;;;;;;;;5110122;27;42515;-68
2023/07/20 07:56:21;;;;;;;2.58;1.35;;;;;;;;;;5106484;27;42848;-69
2023/07/20 07:58:51;;;;;;;1.67;0.90;;;;;;;;;;5105068;27;41312;-68
2023/07/20 08:01:19;;;;;;;1.58;0.70;;;;;;;;;;5107704;27;42532;-69
2023/07/20 08:03:47;;;;;;;2.25;0.77;;;;;;;;;;5108961;28;42004;-70
2023/07/20 08:06:15;;;;;;;4.07;0.80;;;;;;;;;;5108983;28;39886;-72
2023/07/20 08:08:45;;;;;;;2.83;0.80;;;;;;;;;;5111152;27;41857;-77
2023/07/20 08:11:13;;;;;;;6.00;0.60;;;;;;;;;;5109371;27;40564;-75
2023/07/20 08:13:42;;;;;;;4.03;0.77;;;;;;;;;;5091300;27;41800;-74
2023/07/20 08:16:10;;;;;;;3.55;0.80;;;;;;;;;;5092304;28;42346;-73
2023/07/20 08:18:39;;;;;;;2.85;0.80;;;;;;;;;;5107672;27;41577;-70
2023/07/20 08:21:07;;;;;;;1.02;0.60;;;;;;;;;;5103970;27;42742;-67
2023/07/20 08:23:35;;;;;;;1.55;0.60;;;;;;;;;;5106482;28;41328;-68
2023/07/20 08:26:04;;;;;;;0.50;0.50;;;;;;;;;;5106320;27;40302;-69
2023/07/20 08:28:32;;;;;;;4.30;0.80;;;;;;;;;;5109095;27;42345;-68
2023/07/20 08:31:00;;;;;;;2.70;0.80;;;;;;;;;;5108273;27;40426;-68
2023/07/20 08:33:29;;;;;;;2.90;0.80;;;;;;;;;;5108133;27;41682;-70
2023/07/20 08:35:57;;;;;;;2.83;0.52;;;;;;;;;;5107828;27;42614;-68
2023/07/20 08:38:25;;;;;;;1.38;0.60;;;;;;;;;;5106251;27;41352;-68
2023/07/20 08:40:55;;;;;;;1.02;0.38;;;;;;;;;;5105739;27;41260;-67
2023/07/20 08:43:25;;;;;;;1.50;0.60;;;;;;;;;;5106129;27;41674;-67
2023/07/20 08:45:53;;;;;;;2.83;0.68;;;;;;;;;;5106008;27;40135;-68
2023/07/20 08:48:20;;;;;;;1.42;0.45;;;;;;;;;;5085820;28;41271;-68
2023/07/20 08:50:49;;;;;;;0.70;0.50;;;;;;;;;;5086888;28;42486;-68
2023/07/20 08:53:17;;;;;;;1.65;0.40;;;;;;;;;;5088014;28;42386;-68
2023/07/20 08:55:45;;;;;;;2.63;0.70;;;;;;;;;;5106261;27;42128;-68
2023/07/20 08:58:14;;;;;;;2.05;0.52;;;;;;;;;;5108549;27;41069;-68
2023/07/20 09:00:44;;;;;;;1.63;0.28;;;;;;;;;;5107710;27;41705;-67
2023/07/20 09:03:14;;;;;;;1.20;0.40;;;;;;;;;;5108436;27;41551;-68
2023/07/20 09:05:42;;;;;;;1.85;0.50;;;;;;;;;;5107455;27;40524;-67
2023/07/20 09:08:10;;;;;;;1.42;0.63;;;;;;;;;;5108128;27;42081;-68
2023/07/20 09:10:41;;;;;;;1.48;0.30;;;;;;;;;;5107782;27;42718;-67
2023/07/20 09:13:09;;;;;;;2.58;0.60;;;;;;;;;;5109158;27;40314;-69
2023/07/20 09:15:37;;;;;;;0.93;0.50;;;;;;;;;;5105543;27;42220;-68
2023/07/20 09:18:07;;;;;;;0.60;0.40;;;;;;;;;;5108208;27;40556;-67
2023/07/20 09:20:35;;;;;;;4.85;0.60;;;;;;;;;;5106243;27;41980;-68
2023/07/20 09:23:05;;;;;;;3.00;0.30;;;;;;;;;;5106731;27;42113;-68
2023/07/20 09:25:34;;;;;;;0.90;0.60;;;;;;;;;;5106611;27;40918;-70
2023/07/20 09:28:03;;;;;;;1.63;0.40;;;;;;;;;;5108061;27;41675;-68
2023/07/20 09:30:33;;;;;;;1.67;0.43;;;;;;;;;;5106002;27;42125;-70
2023/07/20 09:33:01;;;;;;;0.70;0.50;;;;;;;;;;5108554;27;39767;-70
2023/07/20 09:35:30;;;;;;;1.00;0.40;;;;;;;;;;5107725;27;41774;-67
2023/07/20 09:38:10;;;;;;;0.90;0.50;;;;;;;;;;5108368;27;40955;-68
2023/07/20 09:40:41;;;;;;;4.25;0.50;;;;;;;;;;5107749;27;42912;-68
2023/07/20 09:43:12;;;;;;;1.27;0.40;;;;;;;;;;5106846;27;41710;-67
2023/07/20 09:45:43;;;;;;;1.17;0.60;;;;;;;;;;5106592;27;40414;-68
2023/07/20 09:48:14;;;;;;;0.30;0.30;;;;;;;;;;5107730;27;41402;-68
2023/07/20 09:50:50;;;;;;;0.90;0.40;;;;;;;;;;5107213;27;43088;-68
2023/07/20 09:53:18;;;;;;;1.65;0.40;;;;;;;;;;5107345;27;40842;-68
2023/07/20 09:55:47;;;;;;;2.95;0.40;;;;;;;;;;5107311;27;42715;-68
2023/07/20 09:58:15;;;;;;;3.50;0.30;;;;;;;;;;5107027;27;42578;-67
2023/07/20 10:00:46;;;;;;;1.95;0.50;;;;;;;;;;5107931;27;39881;-67
2023/07/20 10:03:19;;;;;;;4.88;0.65;;;;;;;;;;5106818;27;42519;-68
2023/07/20 10:05:49;;;;;;;0.95;0.40;;;;;;;;;;5106213;27;40242;-68
2023/07/20 10:08:18;;;;;;;1.00;0.50;;;;;;;;;;5107141;27;40754;-67
2023/07/20 10:10:49;;;;;;;2.20;0.40;;;;;;;;;;5107077;27;41860;-67
2023/07/20 10:13:17;;;;;;;0.82;0.47;;;;;;;;;;5106792;27;42193;-67
2023/07/20 10:15:47;;;;;;;1.17;0.40;;;;;;;;;;5107891;27;41718;-69
2023/07/20 10:18:17;;;;;;;2.42;0.45;;;;;;;;;;5107462;27;42478;-72
2023/07/20 10:20:45;;;;;;;0.47;0.35;;;;;;;;;;5106133;27;40489;-69
2023/07/20 10:23:18;;;;;;;1.65;0.40;;;;;;;;;;5098175;28;42897;-66
2023/07/20 10:25:46;;;;;;;0.63;0.40;;;;;;;;;;5107485;27;40511;-68
2023/07/20 10:28:14;;;;;;;2.92;0.40;;;;;;;;;;5098436;27;41961;-68
2023/07/20 10:30:42;;;;;;;1.40;0.47;;;;;;;;;;5087363;28;43027;-66
2023/07/20 10:33:10;;;;;;;2.08;0.40;;;;;;;;;;5094213;28;40697;-71
2023/07/20 10:35:53;;;;;;;2.25;0.50;;;;;;;;;;5106770;27;41322;-71
2023/07/20 10:38:23;;;;;;;0.52;0.40;;;;;;;;;;5106010;27;42712;-71
2023/07/20 10:40:59;;;;;;;1.27;0.30;;;;;;;;;;5106679;27;40440;-71
2023/07/20 10:43:27;;;;;;;0.60;0.30;;;;;;;;;;5105741;27;43220;-72
2023/07/20 10:45:55;;;;;;;0.68;0.55;;;;;;;;;;5109628;27;40406;-71
2023/07/20 10:48:24;;;;;;;1.17;0.38;;;;;;;;;;5109047;27;41242;-71
2023/07/20 10:51:11;;;;;;;1.33;0.55;;;;;;;;;;5110886;27;42541;-71
2023/07/20 10:53:41;;;;;;;4.78;0.77;;;;;;;;;;5109024;27;40351;-72
2023/07/20 10:56:09;;;;;;;0.60;0.40;;;;;;;;;;5105970;27;42358;-71
2023/07/20 10:58:37;;;;;;;1.25;0.63;;;;;;;;;;5098278;27;43181;-71
2023/07/20 11:01:06;;;;;;;1.08;0.45;;;;;;;;;;5097511;28;41407;-72
2023/07/20 11:03:34;;;;;;;2.83;0.43;;;;;;;;;;5100280;28;41746;-70
2023/07/20 11:06:38;;;;;;;2.85;0.40;;;;;;;;;;5105428;27;39815;-71
2023/07/20 11:09:10;;;;;;;7.47;0.60;;;;;;;;;;5033441;28;42654;-69
2023/07/20 11:11:38;;;;;;;6.25;0.50;;;;;;;;;;5084337;27;42719;-66
2023/07/20 11:14:07;;;;;;;5.70;0.90;;;;;;;;;;5099887;27;40076;-66
2023/07/20 11:16:36;;;;;;;2.47;0.60;;;;;;;;;;5095817;28;41811;-69
2023/07/20 11:19:04;;;;;;;3.28;0.73;;;;;;;;;;5101023;28;43167;-68
2023/07/20 11:21:36;;;;;;;1.42;0.60;;;;;;;;;;5108307;28;40978;-71
2023/07/20 11:24:24;;;;;;;3.55;0.90;;;;;;;;;;5109677;27;42503;-75
2023/07/20 11:26:52;;;;;;;6.70;1.40;;;;;;;;;;5110055;27;43543;-70
2023/07/20 11:29:20;;;;;;;6.57;1.70;;;;;;;;;;5108583;27;41723;-72
2023/07/20 11:32:00;;;;;;;1.92;0.55;;;;;;;;;;5109047;27;42173;-72
2023/07/20 11:34:28;;;;;;;5.22;0.68;;;;;;;;;;5108211;27;40253;-72
2023/07/20 11:36:56;;;;;;;2.88;0.60;;;;;;;;;;5109356;28;41612;-72
2023/07/20 11:39:29;;;;;;;1.08;0.60;;;;;;;;;;5110589;27;20380;-73
2023/07/20 11:41:57;;;;;;;0.65;0.50;;;;;;;;;;5110314;27;40080;-72
2023/07/20 11:44:27;;;;;;;2.40;0.80;;;;;;;;;;5108567;27;41192;-72
2023/07/20 11:47:03;;;;;;;1.98;0.60;;;;;;;;;;5110111;27;42314;-74
2023/07/20 11:49:32;;;;;;;2.78;0.47;;;;;;;;;;5108645;27;40928;-74
2023/07/20 11:52:02;;;;;;;2.60;0.57;;;;;;;;;;5109648;27;41896;-72
2023/07/20 11:54:31;;;;;;;1.13;0.57;;;;;;;;;;5108873;27;41415;-72
2023/07/20 11:57:01;;;;;;;1.70;0.60;;;;;;;;;;5108849;27;42972;-72
2023/07/20 11:59:29;;;;;;;9.27;1.20;;;;;;;;;;5108204;27;42627;-68
2023/07/20 12:01:57;;;;;;;3.28;0.50;;;;;;;;;;5107598;27;42154;-68
2023/07/20 12:04:25;;;;;;;4.03;0.70;;;;;;;;;;5106334;27;41725;-68
2023/07/20 12:06:54;;;;;;;4.72;0.70;;;;;;;;;;5107260;27;41701;-68
2023/07/20 12:09:22;;;;;;;0.70;0.57;;;;;;;;;;5106371;27;41243;-68
2023/07/20 12:11:52;;;;;;;0.85;0.68;;;;;;;;;;5101688;28;42575;-68
2023/07/20 12:14:20;;;;;;;2.63;0.80;;;;;;;;;;5098776;27;41407;-67
2023/07/20 12:16:53;;;;;;;2.38;0.70;;;;;;;;;;5099990;27;41778;-68
2023/07/20 12:19:21;;;;;;;1.73;0.70;;;;;;;;;;5096187;27;43132;-69
2023/07/20 12:21:49;;;;;;;1.95;0.80;;;;;;;;;;5101494;27;40564;-68
2023/07/20 12:24:17;;;;;;;1.55;0.70;;;;;;;;;;5098225;27;42146;-68
2023/07/20 12:26:45;;;;;;;2.17;1.00;;;;;;;;;;5107845;28;42552;-67
2023/07/20 12:29:14;;;;;;;1.58;0.65;;;;;;;;;;5108920;27;40994;-68
2023/07/20 12:31:43;;;;;;;1.40;0.80;;;;;;;;;;5101442;27;42028;-68
2023/07/20 12:34:11;;;;;;;1.42;0.80;;;;;;;;;;5102449;27;32263;-68
2023/07/20 12:36:39;;;;;;;2.33;0.70;;;;;;;;;;5094274;27;41175;-68
2023/07/20 12:39:06;;;;;;;0.98;0.70;;;;;;;;;;5099104;28;43238;-68
2023/07/20 12:41:35;;;;;;;1.63;0.70;;;;;;;;;;5106887;27;39747;-68
2023/07/20 12:44:02;;;;;;;1.05;0.70;;;;;;;;;;5088381;28;41648;-69
2023/07/20 12:46:35;;;;;;;1.40;0.60;;;;;;;;;;5105231;28;42231;-68
2023/07/20 12:49:03;;;;;;;0.93;0.60;;;;;;;;;;5106231;28;40869;-69
2023/07/20 12:51:31;;;;;;;0.88;0.60;;;;;;;;;;5106063;27;42257;-69
2023/07/20 12:54:00;;;;;;;2.35;0.80;;;;;;;;;;5101565;27;42907;-68
2023/07/20 12:56:28;;;;;;;3.10;0.70;;;;;;;;;;5107461;27;42591;-71
2023/07/20 12:58:59;;;;;;;1.98;0.70;;;;;;;;;;5088442;28;41761;-69
2023/07/20 13:01:27;;;;;;;2.13;0.80;;;;;;;;;;5098303;28;41340;-68
2023/07/20 13:03:56;;;;;;;1.52;0.60;;;;;;;;;;5104848;28;42582;-66
2023/07/20 13:06:27;;;;;;;1.38;0.50;;;;;;;;;;5108093;27;42170;-67
2023/07/20 13:08:58;;;;;;;3.17;0.63;;;;;;;;;;5100659;27;40933;-68
2023/07/20 13:11:26;;;;;;;1.15;0.68;;;;;;;;;;5107946;27;42346;-65
2023/07/20 13:13:54;;;;;;;3.00;0.70;;;;;;;;;;5107743;28;43064;-67
2023/07/20 13:16:25;;;;;;;1.73;0.65;;;;;;;;;;5107635;28;40468;-67
2023/07/20 13:18:53;;;;;;;1.67;0.80;;;;;;;;;;5108164;27;41919;-70
2023/07/20 13:21:24;;;;;;;5.35;0.60;;;;;;;;;;5107889;27;40576;-67
2023/07/20 13:23:53;;;;;;;0.93;0.60;;;;;;;;;;5108298;27;41719;-67
2023/07/20 13:26:21;;;;;;;1.30;0.80;;;;;;;;;;5100417;27;43384;-67
2023/07/20 13:28:49;;;;;;;2.30;0.73;;;;;;;;;;5100624;28;40898;-67
2023/07/20 13:31:17;;;;;;;1.05;0.75;;;;;;;;;;5107326;27;41586;-68
2023/07/20 13:33:45;;;;;;;3.47;0.73;;;;;;;;;;5108079;28;42054;-67
2023/07/20 13:36:26;;;;;;;0.55;0.50;;;;;;;;;;5086404;28;41094;-67
2023/07/20 13:38:54;;;;;;;2.55;0.57;;;;;;;;;;5088658;28;42623;-67
2023/07/20 13:41:22;;;;;;;0.75;0.70;;;;;;;;;;5107454;27;41249;-68
2023/07/20 13:43:51;;;;;;;0.93;0.80;;;;;;;;;;5107555;27;42665;-67
2023/07/20 13:46:20;;;;;;;1.50;0.50;;;;;;;;;;5107311;27;42163;-69
2023/07/20 13:49:08;;;;;;;1.70;0.43;;;;;;;;;;5104909;27;40631;-71
2023/07/20 13:51:51;;;;;;;0.93;0.60;;;;;;;;;;5107957;27;42194;-71
2023/07/20 13:54:21;;;;;;;3.83;0.65;;;;;;;;;;5106840;27;42960;-72
2023/07/20 13:56:52;;;;;;;2.72;0.70;;;;;;;;;;5106968;27;41960;-68
2023/07/20 13:59:22;;;;;;;2.50;0.70;;;;;;;;;;5106816;27;41639;-67
2023/07/20 14:01:50;;;;;;;9.35;1.05;;;;;;;;;;5106574;27;41977;-79
2023/07/20 14:04:18;;;;;;;4.72;0.93;;;;;;;;;;5091880;27;42779;-77
2023/07/20 14:06:47;;;;;;;3.65;0.85;;;;;;;;;;5097354;28;43317;-70
2023/07/20 14:09:16;;;;;;;5.50;0.70;;;;;;;;;;5107948;27;39958;-70
2023/07/20 14:11:45;;;;;;;5.35;0.55;;;;;;;;;;5106501;27;43206;-70
2023/07/20 14:14:16;;;;;;;2.08;0.70;;;;;;;;;;5107437;27;42976;-70
2023/07/20 14:16:44;;;;;;;3.90;0.70;;;;;;;;;;5106480;27;40378;-71
2023/07/20 14:19:12;;;;;;;5.07;0.80;;;;;;;;;;5102793;27;40943;-70
2023/07/20 14:21:40;;;;;;;2.20;0.85;;;;;;;;;;5106459;27;43095;-70
2023/07/20 14:24:08;;;;;;;1.00;0.40;;;;;;;;;;5106988;27;41229;-71
2023/07/20 14:26:38;;;;;;;4.40;1.00;;;;;;;;;;5104655;27;42001;-70
2023/07/20 14:29:10;;;;;;;2.55;0.80;;;;;;;;;;5101935;27;40604;-66
2023/07/20 14:31:38;;;;;;;0.50;0.50;;;;;;;;;;5104158;27;41076;-66
2023/07/20 14:34:06;;;;;;;2.08;0.80;;;;;;;;;;5107718;27;42623;-65
2023/07/20 14:36:34;;;;;;;0.60;0.50;;;;;;;;;;5105540;27;40365;-69
2023/07/20 14:39:02;;;;;;;2.78;0.60;;;;;;;;;;5105339;27;41936;-69
2023/07/20 14:41:30;;;;;;;2.75;0.70;;;;;;;;;;5105840;27;42082;-68
2023/07/20 14:44:00;;;;;;;1.60;0.50;;;;;;;;;;5107377;27;41363;-68
2023/07/20 14:46:28;;;;;;;3.17;0.95;;;;;;;;;;5105137;27;42848;-73
2023/07/20 14:48:56;;;;;;;1.85;0.57;;;;;;;;;;5104363;27;40573;-72
2023/07/20 14:51:24;;;;;;;5.25;0.70;;;;;;;;;;5106098;27;41449;-72
2023/07/20 14:54:03;;;;;;;2.92;0.88;;;;;;;;;;5104411;27;42717;-72
2023/07/20 14:56:31;;;;;;;1.90;0.70;;;;;;;;;;5106044;27;41430;-72